createdAt,value
2023-03-02T00:01:21.780Z,35.17
2023-03-02T00:03:48.460Z,32.50
2023-03-02T00:06:15.293Z,33.33
2023-03-02T00:08:41.883Z,32.05
2023-03-02T00:11:08.712Z,30.48
2023-03-02T00:13:35.740Z,30.30
2023-03-02T00:16:02.403Z,33.83
2023-03-02T00:18:29.252Z,28.92
2023-03-02T00:20:55.848Z,31.10
2023-03-02T00:23:22.419Z,29.65
2023-03-02T00:25:49.067Z,28.60
2023-03-02T00:28:15.651Z,28.27
2023-03-02T00:30:42.251Z,34.72
2023-03-02T00:33:09.009Z,30.15
2023-03-02T00:35:39.703Z,34.03
2023-03-02T00:38:07.195Z,31.35
2023-03-02T00:40:35.071Z,30.13
2023-03-02T00:43:01.818Z,27.85
2023-03-02T00:45:28.440Z,35.63
2023-03-02T00:47:55.089Z,31.27
2023-03-02T00:50:21.782Z,37.70
2023-03-02T00:52:48.434Z,35.00
2023-03-02T00:55:15.159Z,27.33
2023-03-02T00:57:41.866Z,33.08
2023-03-02T01:00:09.197Z,36.10
2023-03-02T01:02:35.908Z,36.50
2023-03-02T01:05:02.582Z,32.60
2023-03-02T01:07:29.157Z,30.13
2023-03-02T01:09:55.757Z,29.52
2023-03-02T01:12:22.637Z,37.40
2023-03-02T01:14:50.791Z,34.03
2023-03-02T01:17:17.427Z,37.70
2023-03-02T01:19:44.130Z,36.85
2023-03-02T01:22:10.922Z,34.50
2023-03-02T01:24:37.570Z,35.30
2023-03-02T01:27:04.225Z,36.83
2023-03-02T01:29:30.829Z,33.85
2023-03-02T01:31:57.574Z,35.50
2023-03-02T01:34:24.346Z,41.03
2023-03-02T01:36:50.982Z,40.00
2023-03-02T01:39:17.672Z,35.95
2023-03-02T01:41:44.970Z,31.80
2023-03-02T01:44:32.748Z,35.35
2023-03-02T01:46:59.354Z,35.22
2023-03-02T01:49:25.933Z,34.72
2023-03-02T01:51:52.607Z,38.65
2023-03-02T01:54:23.096Z,38.72
2023-03-02T01:56:51.078Z,36.30
2023-03-02T01:59:19.470Z,35.78
2023-03-02T02:01:47.636Z,36.95
2023-03-02T02:04:14.277Z,37.35
2023-03-02T02:06:42.906Z,34.80
2023-03-02T02:09:10.873Z,35.05
2023-03-02T02:11:38.258Z,31.77
2023-03-02T02:14:04.978Z,36.42
2023-03-02T02:16:32.703Z,35.33
2023-03-02T02:18:59.742Z,38.33
2023-03-02T02:21:26.406Z,34.75
2023-03-02T02:24:11.639Z,37.72
2023-03-02T02:26:48.118Z,35.75
2023-03-02T02:29:33.272Z,37.65
2023-03-02T02:32:18.027Z,35.30
2023-03-02T02:35:06.289Z,37.83
2023-03-02T02:37:42.409Z,38.42
2023-03-02T02:40:15.477Z,33.45
2023-03-02T02:42:43.658Z,39.50
2023-03-02T02:45:19.364Z,38.95
2023-03-02T02:47:46.019Z,33.80
2023-03-02T02:50:18.626Z,34.67
2023-03-02T02:52:45.659Z,42.00
2023-03-02T02:55:14.805Z,36.10
2023-03-02T02:57:41.433Z,38.90
2023-03-02T03:00:12.123Z,35.45
2023-03-02T03:02:41.258Z,35.50
2023-03-02T03:05:13.645Z,38.85
2023-03-02T03:07:40.228Z,39.72
2023-03-02T03:10:28.262Z,39.63
2023-03-02T03:12:54.882Z,45.15
2023-03-02T03:15:21.517Z,30.30
2023-03-02T03:17:55.693Z,34.67
2023-03-02T03:20:22.839Z,38.72
2023-03-02T03:22:49.458Z,40.42
2023-03-02T03:25:16.078Z,33.60
2023-03-02T03:27:43.052Z,36.45
2023-03-02T03:30:11.904Z,37.33
2023-03-02T03:32:38.626Z,37.70
2023-03-02T03:35:08.602Z,38.67
2023-03-02T03:37:35.353Z,34.55
2023-03-02T03:40:01.991Z,36.65
2023-03-02T03:42:28.582Z,41.67
2023-03-02T03:44:55.226Z,35.83
2023-03-02T03:47:21.833Z,36.75
2023-03-02T03:49:48.405Z,37.17
2023-03-02T03:52:15.038Z,39.97
2023-03-02T03:54:42.087Z,33.35
2023-03-02T03:57:10.613Z,41.08
2023-03-02T03:59:37.269Z,38.55
2023-03-02T04:02:03.927Z,39.03
2023-03-02T04:04:32.797Z,30.55
2023-03-02T04:06:59.658Z,43.25
2023-03-02T04:09:26.463Z,41.67
2023-03-02T04:11:54.367Z,34.33
2023-03-02T04:14:21.510Z,43.55
2023-03-02T04:16:48.150Z,41.15
2023-03-02T04:19:15.138Z,39.13
2023-03-02T04:21:45.570Z,38.88
2023-03-02T04:24:12.500Z,44.95
2023-03-02T04:26:39.601Z,43.90
2023-03-02T04:29:06.293Z,42.83
2023-03-02T04:31:33.198Z,41.50
2023-03-02T04:33:59.991Z,38.40
2023-03-02T04:36:26.894Z,44.72
2023-03-02T04:38:53.540Z,38.65
2023-03-02T04:41:21.412Z,41.33
2023-03-02T04:43:48.148Z,41.72
2023-03-02T04:46:16.583Z,44.45
2023-03-02T04:48:43.266Z,38.38
2023-03-02T04:51:24.094Z,38.83
2023-03-02T04:53:52.235Z,35.65
2023-03-02T04:56:18.903Z,38.15
2023-03-02T04:58:45.653Z,44.25
2023-03-02T05:01:12.575Z,40.08
2023-03-02T05:03:39.207Z,31.88
2023-03-02T05:06:06.124Z,37.70
2023-03-02T05:08:32.705Z,38.85
2023-03-02T05:10:59.350Z,34.80
2023-03-02T05:13:26.542Z,39.47
2023-03-02T05:15:53.664Z,37.63
2023-03-02T05:18:20.406Z,36.03
2023-03-02T05:20:47.067Z,36.13
2023-03-02T05:23:25.264Z,39.15
2023-03-02T05:25:53.183Z,41.03
2023-03-02T05:28:19.986Z,36.30
2023-03-02T05:30:47.193Z,34.55
2023-03-02T05:33:14.206Z,32.58
2023-03-02T05:35:41.047Z,37.15
2023-03-02T05:38:07.709Z,35.58
2023-03-02T05:40:34.475Z,42.70
2023-03-02T05:43:01.145Z,38.22
2023-03-02T05:45:30.211Z,37.78
2023-03-02T05:47:56.981Z,39.45
2023-03-02T05:50:23.610Z,38.13
2023-03-02T05:52:50.511Z,35.95
2023-03-02T05:55:17.432Z,33.25
2023-03-02T05:57:44.608Z,33.85
2023-03-02T06:00:12.286Z,31.73
2023-03-02T06:02:39.476Z,38.88
2023-03-02T06:05:07.336Z,38.63
2023-03-02T06:07:33.941Z,38.05
2023-03-02T06:10:00.524Z,38.15
2023-03-02T06:12:27.137Z,38.33
2023-03-02T06:14:53.806Z,35.70
2023-03-02T06:17:20.543Z,45.45
2023-03-02T06:19:47.250Z,39.78
2023-03-02T06:22:13.845Z,36.58
2023-03-02T06:24:40.439Z,39.95
2023-03-02T06:27:07.038Z,38.17
2023-03-02T06:29:33.632Z,35.72
2023-03-02T06:32:00.334Z,37.80
2023-03-02T06:34:28.718Z,38.35
2023-03-02T06:36:55.625Z,39.17
2023-03-02T06:39:22.405Z,38.63
2023-03-02T06:41:49.121Z,33.55
2023-03-02T06:44:16.538Z,40.28
2023-03-02T06:46:43.364Z,32.90
2023-03-02T06:49:10.174Z,37.80
2023-03-02T06:51:36.946Z,38.30
2023-03-02T06:54:04.515Z,40.03
2023-03-02T06:56:31.487Z,32.40
2023-03-02T06:58:58.291Z,37.38
2023-03-02T07:01:24.910Z,37.85
2023-03-02T07:03:51.635Z,37.85
2023-03-02T07:06:18.308Z,34.67
2023-03-02T07:08:45.704Z,37.65
2023-03-02T07:11:12.610Z,34.95
2023-03-02T07:13:40.072Z,39.83
2023-03-02T07:16:11.237Z,43.50
2023-03-02T07:18:38.107Z,35.92
2023-03-02T07:21:04.954Z,32.00
2023-03-02T07:23:31.659Z,35.80
2023-03-02T07:25:58.303Z,30.30
2023-03-02T07:28:25.333Z,35.20
2023-03-02T07:30:53.296Z,37.13
2023-03-02T07:33:20.686Z,37.08
2023-03-02T07:35:47.506Z,30.45
2023-03-02T07:38:14.420Z,34.17
2023-03-02T07:40:42.025Z,30.92
2023-03-02T07:43:08.919Z,35.50
2023-03-02T07:45:35.693Z,33.17
2023-03-02T07:48:02.370Z,32.40
2023-03-02T07:50:29.013Z,37.25
2023-03-02T07:52:55.708Z,31.45
2023-03-02T07:55:22.563Z,32.80
2023-03-02T07:57:49.200Z,39.30
2023-03-02T08:00:16.565Z,31.92
2023-03-02T08:02:43.305Z,33.17
2023-03-02T08:05:10.797Z,34.13
2023-03-02T08:07:37.518Z,35.97
2023-03-02T08:10:04.676Z,27.95
2023-03-02T08:12:37.715Z,32.42
2023-03-02T08:15:05.165Z,31.23
2023-03-02T08:17:32.340Z,28.00
2023-03-02T08:19:58.969Z,31.58
2023-03-02T08:22:25.624Z,30.50
2023-03-02T08:24:52.248Z,29.65
2023-03-02T08:27:18.937Z,26.23
2023-03-02T08:29:47.965Z,32.92
2023-03-02T08:32:14.749Z,27.88
2023-03-02T08:34:41.436Z,31.80
2023-03-02T08:37:08.151Z,30.55
2023-03-02T08:39:34.802Z,36.40
2023-03-02T08:42:01.470Z,28.27
2023-03-02T08:44:28.061Z,36.80
2023-03-02T08:46:55.200Z,34.08
2023-03-02T08:49:21.897Z,44.97
2023-03-02T08:51:53.383Z,42.95
2023-03-02T08:54:20.796Z,28.58
2023-03-02T08:56:47.411Z,30.30
2023-03-02T08:59:14.124Z,28.38
2023-03-02T09:01:41.089Z,35.25
2023-03-02T09:04:08.890Z,42.70
2023-03-02T09:06:37.762Z,36.40
2023-03-02T09:09:04.696Z,46.40
2023-03-02T09:11:31.708Z,31.25
2023-03-02T09:13:58.540Z,31.90
2023-03-02T09:16:25.863Z,36.58
2023-03-02T09:18:53.110Z,26.52
2023-03-02T09:21:19.917Z,32.95
2023-03-02T09:23:46.586Z,33.53
2023-03-02T09:26:13.304Z,31.08
2023-03-02T09:28:40.003Z,25.98
2023-03-02T09:31:07.549Z,33.88
2023-03-02T09:33:34.704Z,31.73
2023-03-02T09:36:05.130Z,31.15
2023-03-02T09:38:31.723Z,36.75
2023-03-02T09:47:02.584Z,27.00
2023-03-02T09:50:09.128Z,33.22
2023-03-02T09:52:37.134Z,30.23
2023-03-02T09:55:16.766Z,48.15
2023-03-02T09:57:43.519Z,25.10
2023-03-02T10:00:30.881Z,25.42
2023-03-02T10:03:11.325Z,27.88
2023-03-02T10:05:44.766Z,22.92
2023-03-02T10:08:13.821Z,26.40
2023-03-02T10:10:45.352Z,23.17
2023-03-02T10:13:42.231Z,33.95
2023-03-02T10:16:34.938Z,27.10
2023-03-02T10:19:19.539Z,37.08
2023-03-02T10:21:47.488Z,43.88
2023-03-02T10:24:28.978Z,39.20
2023-03-02T10:26:59.120Z,34.65
2023-03-02T10:29:42.998Z,25.25
2023-03-02T10:32:21.152Z,30.58
2023-03-02T10:34:49.934Z,28.23
2023-03-02T10:37:18.924Z,27.48
2023-03-02T10:39:45.535Z,28.85
2023-03-02T10:42:36.315Z,32.88
2023-03-02T10:45:28.798Z,25.20
2023-03-02T10:48:12.087Z,21.70
2023-03-02T10:50:38.992Z,32.15
2023-03-02T10:53:07.980Z,25.63
2023-03-02T10:55:34.761Z,23.88
2023-03-02T10:58:04.112Z,28.48
2023-03-02T11:00:31.210Z,34.45
2023-03-02T11:03:00.743Z,26.98
2023-03-02T11:05:30.938Z,27.50
2023-03-02T11:08:02.634Z,30.55
2023-03-02T11:10:38.050Z,24.75
2023-03-02T11:13:24.186Z,33.45
2023-03-02T11:15:51.808Z,28.60
2023-03-02T11:21:09.104Z,32.58
2023-03-02T11:23:49.575Z,21.85
2023-03-02T11:29:12.305Z,21.33
2023-03-02T11:31:48.421Z,19.58
2023-03-02T11:34:46.615Z,20.42
2023-03-02T11:37:22.987Z,18.20
2023-03-02T11:40:12.155Z,20.05
2023-03-02T11:42:41.041Z,18.67
2023-03-02T11:48:04.509Z,40.83
2023-03-02T11:50:33.489Z,19.98
2023-03-02T11:53:01.779Z,22.38
2023-03-02T11:55:29.040Z,28.10
2023-03-02T11:57:56.859Z,22.15
2023-03-02T12:00:43.440Z,21.80
2023-03-02T12:06:03.026Z,20.95
2023-03-02T12:08:34.117Z,24.40
2023-03-02T12:11:23.313Z,21.85
2023-03-02T12:13:55.151Z,23.77
2023-03-02T12:16:40.203Z,18.87
2023-03-02T12:19:27.741Z,21.27
2023-03-02T12:22:00.190Z,17.25
2023-03-02T12:24:31.854Z,30.75
2023-03-02T12:29:48.839Z,29.50
2023-03-02T12:32:25.488Z,26.98
2023-03-02T12:34:55.098Z,23.13
2023-03-02T12:37:24.952Z,26.10
2023-03-02T12:40:19.848Z,17.48
2023-03-02T12:43:20.064Z,22.92
2023-03-02T12:48:44.221Z,17.98
2023-03-02T12:51:21.332Z,14.27
2023-03-02T12:53:49.273Z,14.85
2023-03-02T12:56:25.038Z,15.32
2023-03-02T12:58:52.550Z,17.83
2023-03-02T13:01:22.811Z,13.38
2023-03-02T13:03:49.589Z,22.90
2023-03-02T13:06:18.914Z,18.83
2023-03-02T13:08:48.287Z,22.20
2023-03-02T13:11:20.169Z,23.35
2023-03-02T13:13:48.569Z,17.93
2023-03-02T13:16:25.775Z,14.25
2023-03-02T13:18:56.960Z,18.88
2023-03-02T13:21:31.371Z,15.95
2023-03-02T13:23:57.974Z,15.38
2023-03-02T13:26:27.407Z,25.75
2023-03-02T13:31:50.158Z,19.17
2023-03-02T13:34:25.774Z,27.30
2023-03-02T13:36:52.764Z,19.38
2023-03-02T13:39:21.165Z,13.40
2023-03-02T13:41:56.518Z,19.27
2023-03-02T13:44:32.288Z,15.65
2023-03-02T13:46:59.202Z,19.92
2023-03-02T13:49:27.846Z,19.98
2023-03-02T13:51:59.855Z,15.27
2023-03-02T13:54:28.549Z,18.05
2023-03-02T13:56:55.218Z,16.58
2023-03-02T13:59:22.043Z,15.77
2023-03-02T14:01:48.744Z,18.83
2023-03-02T14:04:17.783Z,15.55
2023-03-02T14:06:45.109Z,16.75
2023-03-02T14:09:11.799Z,19.10
2023-03-02T14:11:40.241Z,17.95
2023-03-02T14:14:06.987Z,16.98
2023-03-02T14:16:35.970Z,18.88
2023-03-02T14:19:02.756Z,17.67
2023-03-02T14:21:29.525Z,20.23
2023-03-02T14:23:56.293Z,30.10
2023-03-02T14:26:40.774Z,20.10
2023-03-02T14:31:54.165Z,36.08
2023-03-02T14:34:20.915Z,41.17
2023-03-02T14:36:49.258Z,32.00
2023-03-02T14:39:21.914Z,29.17
2023-03-02T14:44:21.357Z,24.33
2023-03-02T14:46:48.049Z,28.52
2023-03-02T14:49:14.799Z,31.92
2023-03-02T14:51:41.841Z,29.10
2023-03-02T14:54:11.006Z,28.35
2023-03-02T14:56:37.658Z,25.85
2023-03-02T14:59:04.387Z,32.13
2023-03-02T15:01:32.123Z,31.05
2023-03-02T15:03:59.062Z,30.23
2023-03-02T15:06:27.710Z,37.50
2023-03-02T15:08:55.433Z,35.33
2023-03-02T15:11:22.323Z,30.88
2023-03-02T15:13:48.974Z,31.70
2023-03-02T15:16:16.110Z,28.42
2023-03-02T15:18:42.985Z,31.65
2023-03-02T15:21:15.051Z,28.88
2023-03-02T15:23:41.646Z,29.85
2023-03-02T15:26:09.691Z,32.65
2023-03-02T15:28:36.530Z,38.50
2023-03-02T15:31:07.959Z,32.97
2023-03-02T15:33:34.603Z,32.13
2023-03-02T15:36:01.306Z,31.13
2023-03-02T15:38:28.154Z,36.00
2023-03-02T15:40:55.765Z,33.85
2023-03-02T15:43:24.168Z,34.00
2023-03-02T15:45:50.858Z,37.03
2023-03-02T15:48:17.566Z,35.67
2023-03-02T15:50:44.192Z,35.60
2023-03-02T15:53:10.963Z,35.38
2023-03-02T15:55:40.649Z,37.25
2023-03-02T15:58:08.648Z,38.13
2023-03-02T16:00:37.661Z,40.42
2023-03-02T16:03:04.721Z,36.17
2023-03-02T16:05:31.434Z,44.10
2023-03-02T16:07:58.073Z,36.45
2023-03-02T16:10:26.709Z,35.25
2023-03-02T16:12:53.345Z,36.80
2023-03-02T16:15:20.054Z,43.15
2023-03-02T16:17:46.747Z,38.42
2023-03-02T16:20:13.550Z,35.85
2023-03-02T16:22:40.248Z,50.25
2023-03-02T16:25:07.170Z,43.28
2023-03-02T16:27:33.862Z,41.95
2023-03-02T16:30:00.467Z,34.08
2023-03-02T16:32:27.761Z,42.20
2023-03-02T16:34:58.181Z,35.72
2023-03-02T16:37:24.956Z,41.08
2023-03-02T16:39:51.648Z,40.50
2023-03-02T16:42:18.453Z,36.25
2023-03-02T16:44:45.863Z,54.08
2023-03-02T16:47:12.614Z,42.92
2023-03-02T16:49:39.318Z,46.47
2023-03-02T16:52:05.950Z,41.30
2023-03-02T16:54:32.595Z,34.75
2023-03-02T16:56:59.201Z,44.17
2023-03-02T16:59:25.877Z,40.78
2023-03-02T17:01:52.793Z,40.22
2023-03-02T17:04:21.100Z,36.88
2023-03-02T17:07:03.107Z,40.60
2023-03-02T17:09:30.277Z,41.35
2023-03-02T17:11:56.919Z,46.67
2023-03-02T17:14:23.630Z,36.47
2023-03-02T17:16:50.235Z,41.13
2023-03-02T17:19:16.813Z,35.88
2023-03-02T17:21:43.687Z,39.25
2023-03-02T17:24:10.537Z,42.45
2023-03-02T17:26:37.121Z,46.63
2023-03-02T17:29:03.836Z,51.45
2023-03-02T17:31:30.458Z,47.00
2023-03-02T17:33:57.206Z,47.97
2023-03-02T17:36:23.822Z,40.22
2023-03-02T17:38:51.764Z,47.80
2023-03-02T17:41:18.356Z,51.53
2023-03-02T17:43:45.134Z,50.05
2023-03-02T17:46:22.522Z,50.78
2023-03-02T17:48:52.481Z,53.75
2023-03-02T17:51:21.377Z,46.72
2023-03-02T17:53:49.038Z,52.60
2023-03-02T17:56:18.805Z,52.03
2023-03-02T17:58:45.997Z,54.50
2023-03-02T18:01:13.841Z,46.22
2023-03-02T18:03:40.578Z,48.35
2023-03-02T18:06:07.413Z,43.90
2023-03-02T18:08:34.146Z,48.60
2023-03-02T18:11:00.803Z,51.15
2023-03-02T18:13:27.503Z,42.47
2023-03-02T18:15:54.231Z,46.03
2023-03-02T18:18:20.948Z,62.65
2023-03-02T18:20:47.785Z,48.10
2023-03-02T18:23:14.457Z,57.97
2023-03-02T18:25:41.069Z,53.30
2023-03-02T18:28:07.689Z,49.83
2023-03-02T18:30:34.531Z,45.85
2023-03-02T18:33:01.765Z,51.97
2023-03-02T18:35:28.538Z,46.92
2023-03-02T18:37:55.196Z,56.40
2023-03-02T18:40:21.836Z,46.35
2023-03-02T18:42:49.037Z,45.42
2023-03-02T18:45:22.734Z,56.13
2023-03-02T18:47:49.387Z,57.28
2023-03-02T18:50:15.982Z,49.08
2023-03-02T18:52:42.631Z,49.78
2023-03-02T18:55:09.706Z,44.17
2023-03-02T18:57:37.977Z,44.67
2023-03-02T19:00:06.586Z,45.75
2023-03-02T19:02:33.407Z,51.25
2023-03-02T19:05:01.282Z,43.67
2023-03-02T19:07:28.220Z,48.72
2023-03-02T19:09:54.819Z,53.58
2023-03-02T19:12:21.436Z,49.15
2023-03-02T19:14:48.109Z,54.60
2023-03-02T19:17:14.771Z,56.60
2023-03-02T19:19:43.578Z,53.70
2023-03-02T19:22:10.488Z,54.55
2023-03-02T19:24:37.182Z,47.03
2023-03-02T19:27:03.885Z,65.22
2023-03-02T19:29:30.572Z,60.28
2023-03-02T19:31:57.318Z,60.72
2023-03-02T19:34:24.105Z,53.20
2023-03-02T19:36:50.810Z,51.22
2023-03-02T19:39:17.469Z,50.53
2023-03-02T19:41:44.096Z,53.28
2023-03-02T19:44:12.425Z,49.92
2023-03-02T19:46:39.661Z,50.28
2023-03-02T19:49:06.290Z,46.33
2023-03-02T19:51:32.938Z,54.33
2023-03-02T19:54:00.448Z,49.65
2023-03-02T19:56:32.559Z,52.38
2023-03-02T19:59:00.144Z,51.42
2023-03-02T20:01:28.836Z,55.20
2023-03-02T20:03:55.874Z,59.95
2023-03-02T20:06:25.496Z,52.22
2023-03-02T20:08:52.413Z,52.78
2023-03-02T20:11:19.084Z,44.95
2023-03-02T20:13:45.666Z,43.63
2023-03-02T20:16:13.413Z,46.28
2023-03-02T20:18:42.098Z,51.63
2023-03-02T20:21:08.912Z,49.15
2023-03-02T20:23:35.585Z,52.85
2023-03-02T20:26:02.854Z,46.97
2023-03-02T20:28:30.089Z,54.33
2023-03-02T20:30:58.263Z,46.45
2023-03-02T20:33:27.942Z,48.83
2023-03-02T20:35:55.165Z,52.28
2023-03-02T20:38:29.366Z,53.30
2023-03-02T20:40:56.188Z,54.67
2023-03-02T20:43:22.873Z,56.05
2023-03-02T20:45:50.055Z,47.92
2023-03-02T20:48:17.201Z,50.60
2023-03-02T20:50:43.946Z,49.60
2023-03-02T20:53:10.584Z,44.20
2023-03-02T20:55:37.435Z,48.80
2023-03-02T20:58:05.303Z,51.90
2023-03-02T21:00:32.979Z,49.63
2023-03-02T21:02:59.681Z,53.67
2023-03-02T21:05:26.821Z,48.83
2023-03-02T21:07:53.790Z,50.28
2023-03-02T21:10:24.368Z,45.33
2023-03-02T21:12:51.069Z,46.08
2023-03-02T21:15:20.010Z,49.70
2023-03-02T21:17:46.961Z,43.85
2023-03-02T21:20:14.006Z,47.65
2023-03-02T21:22:40.654Z,48.58
2023-03-02T21:25:09.157Z,51.58
2023-03-02T21:27:36.596Z,48.47
2023-03-02T21:30:06.232Z,45.83
2023-03-02T21:32:33.203Z,47.30
2023-03-02T21:34:59.920Z,43.25
2023-03-02T21:37:27.106Z,46.45
2023-03-02T21:39:53.779Z,48.67
2023-03-02T21:42:21.135Z,52.60
2023-03-02T21:44:47.693Z,43.75
2023-03-02T21:47:14.272Z,46.17
2023-03-02T21:49:40.847Z,49.33
2023-03-02T21:52:07.879Z,54.30
2023-03-02T21:54:34.663Z,52.13
2023-03-02T21:57:01.303Z,46.63
2023-03-02T21:59:29.266Z,45.40
2023-03-02T22:01:56.025Z,49.97
2023-03-02T22:04:22.724Z,46.30
2023-03-02T22:06:49.499Z,46.08
2023-03-02T22:09:16.204Z,48.35
2023-03-02T22:11:50.283Z,52.22
2023-03-02T22:14:17.743Z,46.42
2023-03-02T22:16:47.151Z,48.80
2023-03-02T22:19:30.450Z,45.55
2023-03-02T22:21:59.926Z,44.38
2023-03-02T22:24:28.686Z,44.38
2023-03-02T22:27:00.588Z,46.17
2023-03-02T22:29:43.783Z,50.63
2023-03-02T22:32:19.132Z,47.65
2023-03-02T22:34:46.986Z,46.95
2023-03-02T22:37:17.603Z,49.60
2023-03-02T22:39:44.460Z,53.38
2023-03-02T22:42:19.957Z,47.95
2023-03-02T22:45:21.740Z,47.00
2023-03-02T22:47:51.180Z,54.63
2023-03-02T22:50:26.081Z,42.35
2023-03-02T22:52:53.211Z,54.65
2023-03-02T22:55:40.573Z,51.97
2023-03-02T22:58:37.998Z,53.20
2023-03-02T23:01:13.340Z,44.97
2023-03-02T23:03:41.211Z,42.42
2023-03-02T23:06:28.835Z,48.85
2023-03-02T23:08:58.556Z,49.35
2023-03-02T23:11:25.303Z,44.65
2023-03-02T23:13:52.830Z,43.28
2023-03-02T23:16:24.870Z,50.47
2023-03-02T23:18:52.053Z,52.17
2023-03-02T23:23:58.838Z,49.97
2023-03-02T23:26:25.515Z,40.42
2023-03-02T23:28:52.224Z,46.30
2023-03-02T23:31:18.853Z,45.13
2023-03-02T23:33:45.629Z,56.50
2023-03-02T23:36:12.296Z,48.75
2023-03-02T23:38:39.356Z,43.75
2023-03-02T23:41:06.676Z,46.15
2023-03-02T23:43:33.725Z,50.40
2023-03-02T23:46:00.645Z,42.38
2023-03-02T23:48:27.290Z,51.63
2023-03-02T23:50:53.971Z,45.65
2023-03-02T23:53:20.628Z,47.53
2023-03-02T23:55:48.633Z,45.42
2023-03-02T23:58:15.933Z,43.63
